Terminal Aerodrome Forecast
Issued by NWS

Home | Current Version | Previous Version | Text Only | Print | Product List | Glossary On
Versions: 1 2 3 4 5 6 7 8 9 10 11 12 13 14 15 16 17 18 19
000
FTUS42 KMLB 182300
TAFISM
TAF
KISM 182339Z 1900/1924 18009KT P6SM VCSH SCT035 BKN080
     FM190800 18010KT P6SM VCSH BKN030 OVC050
     FM191300 22010KT P6SM VCSH BKN025 OVC050
     FM191800 26013KT P6SM SCT025 BKN035
      AMD NOT SKED 1902/1911=

USA.gov is the U.S. government's official web portal to all federal, state and local government web resources and services.